Time;durP1;ratioP1;P1;durP2;ratioP2;P2;SDS_P1;SDS_P2;PMS_P1;PMS_P2;Temp;Humidity;BMP_temperature;BMP_pressure;BME280_temperature;BME280_humidity;BME280_pressure;Samples;Min_cycle;Max_cycle;Signal;HPM_P1;HPM_P2
2021/12/17 00:01:07;;;;;;;;;;;;;;;;;;7394380;19;19933;-60
2021/12/17 00:03:43;;;;;;;;;;;;;;;;;;7394547;19;19915;-59
2021/12/17 00:06:29;;;;;;;;;;;;;;;;;;7394373;19;19970;-60
2021/12/17 00:08:57;;;;;;;;;;;;;;;;;;7393856;19;20338;-59
2021/12/17 00:11:24;;;;;;;;;;;;;;;;;;7393828;19;19915;-59
2021/12/17 00:13:54;;;;;;;;;;;;;;;;;;7392450;19;19919;-59
2021/12/17 00:16:25;;;;;;;;;;;;;;;;;;7394122;19;19958;-59
2021/12/17 00:49:06;;;;;;;;;;;;;;;;;;7392736;19;19926;-59
2021/12/17 00:54:29;;;;;;;;;;;;;;;;;;7391622;19;19937;-60
2021/12/17 00:56:59;;;;;;;;;;;;;;;;;;7392881;19;19921;-59
2021/12/17 00:59:27;;;;;;;;;;;;;;;;;;7380639;19;20014;-59
2021/12/17 01:01:56;;;;;;;;;;;;;;;;;;7395178;19;19962;-60
2021/12/17 01:04:23;;;;;;;;;;;;;;;;;;7393377;19;19987;-59
2021/12/17 01:06:51;;;;;;;;;;;;;;;;;;7391152;19;20631;-60
2021/12/17 01:09:20;;;;;;;;;;;;;;;;;;7392622;19;19931;-60
2021/12/17 01:11:48;;;;;;;;;;;;;;;;;;7392828;19;19918;-60
2021/12/17 01:14:34;;;;;;;;;;;;;;;;;;7392674;19;19925;-60
2021/12/17 01:17:27;;;;;;;;;;;;;;;;;;7392618;19;20350;-60
2021/12/17 01:23:06;;;;;;;;;;;;;;;;;;7392516;19;19925;-60
2021/12/17 01:35:20;;;;;;;;;;;;;;;;;;7391176;19;19911;-60
2021/12/17 01:43:12;;;;;;;;;;;;;;;;;;7397938;19;19919;-60
2021/12/17 01:45:41;;;;;;;;;;;;;;;;;;7397718;19;19919;-61
2021/12/17 01:48:12;;;;;;;;;;;;;;;;;;7397065;19;19922;-56
2021/12/17 01:56:36;;;;;;;;;;;;;;;;;;7396928;19;19934;-59
2021/12/17 02:02:11;;;;;;;;;;;;;;;;;;7394774;19;20416;-61
2021/12/17 02:04:38;;;;;;;;;;;;;;;;;;7395888;19;19914;-60
2021/12/17 02:07:06;;;;;;;;;;;;;;;;;;7396059;19;19915;-60
2021/12/17 02:21:01;;;;;;;;;;;;;;;;;;7396879;19;20404;-56
2021/12/17 02:31:46;;;;;;;;;;;;;;;;;;7396237;19;19983;-60
2021/12/17 02:37:06;;;;;;;;;;;;;;;;;;7394748;19;19926;-60
2021/12/17 02:48:02;;;;;;;;;;;;;;;;;;7396871;19;19975;-60
2021/12/17 02:50:31;;;;;;;;;;;;;;;;;;7395488;19;19915;-60
2021/12/17 02:53:00;;;;;;;;;;;;;;;;;;7394916;19;19918;-60
2021/12/17 02:55:28;;;;;;;;;;;;;;;;;;7395312;19;20272;-60
2021/12/17 02:57:56;;;;;;;;;;;;;;;;;;7395909;19;19974;-60
2021/12/17 03:00:25;;;;;;;;;;;;;;;;;;7397027;19;19911;-61
2021/12/17 03:02:54;;;;;;;;;;;;;;;;;;7398226;19;19930;-61
2021/12/17 03:05:23;;;;;;;;;;;;;;;;;;7396806;19;19991;-60
2021/12/17 03:07:50;;;;;;;;;;;;;;;;;;7394570;19;19907;-60
2021/12/17 03:10:18;;;;;;;;;;;;;;;;;;7396271;19;19926;-60
2021/12/17 03:12:56;;;;;;;;;;;;;;;;;;7395557;19;19911;-61
2021/12/17 03:15:44;;;;;;;;;;;;;;;;;;7396722;19;19978;-59
2021/12/17 03:23:44;;;;;;;;;;;;;;;;;;7395780;19;20327;-59
2021/12/17 03:26:25;;;;;;;;;;;;;;;;;;7394009;19;19911;-59
2021/12/17 03:28:54;;;;;;;;;;;;;;;;;;7395893;19;19937;-59
2021/12/17 03:31:23;;;;;;;;;;;;;;;;;;7393673;19;19926;-60
2021/12/17 03:33:52;;;;;;;;;;;;;;;;;;7392124;19;19960;-61
2021/12/17 03:36:20;;;;;;;;;;;;;;;;;;7395365;19;19937;-58
2021/12/17 03:38:49;;;;;;;;;;;;;;;;;;7393376;19;19923;-60
2021/12/17 03:41:21;;;;;;;;;;;;;;;;;;7393737;19;19995;-56
2021/12/17 03:43:57;;;;;;;;;;;;;;;;;;7393959;19;19915;-60
2021/12/17 03:46:44;;;;;;;;;;;;;;;;;;7395317;19;19925;-60
2021/12/17 03:49:14;;;;;;;;;;;;;;;;;;7393890;19;19919;-59
2021/12/17 03:52:04;;;;;;;;;;;;;;;;;;7393282;19;19923;-60
2021/12/17 03:54:42;;;;;;;;;;;;;;;;;;7392855;19;19982;-61
2021/12/17 03:57:12;;;;;;;;;;;;;;;;;;7393428;19;19935;-59
2021/12/17 03:59:44;;;;;;;;;;;;;;;;;;7393512;19;19933;-59
2021/12/17 04:02:13;;;;;;;;;;;;;;;;;;7393162;19;19915;-59
2021/12/17 04:04:40;;;;;;;;;;;;;;;;;;7393237;19;19915;-60
2021/12/17 04:07:31;;;;;;;;;;;;;;;;;;7393517;19;19948;-54
2021/12/17 04:10:19;;;;;;;;;;;;;;;;;;7394110;19;19941;-60
2021/12/17 04:12:59;;;;;;;;;;;;;;;;;;7392263;19;19934;-59
2021/12/17 04:15:53;;;;;;;;;;;;;;;;;;7392263;19;19919;-59
2021/12/17 04:18:16;;;;;;;;;;;;;;;;;;7392458;19;19918;-58
2021/12/17 04:20:44;;;;;;;;;;;;;;;;;;7393678;19;19918;-59
2021/12/17 04:23:11;;;;;;;;;;;;;;;;;;7392598;19;20029;-60
2021/12/17 04:25:39;;;;;;;;;;;;;;;;;;7392321;19;19931;-59
2021/12/17 04:28:06;;;;;;;;;;;;;;;;;;7394023;19;19989;-61
2021/12/17 04:30:34;;;;;;;;;;;;;;;;;;7392659;19;19922;-60
2021/12/17 04:33:01;;;;;;;;;;;;;;;;;;7392031;19;19932;-59
2021/12/17 04:35:29;;;;;;;;;;;;;;;;;;7394326;19;19911;-59
2021/12/17 04:38:04;;;;;;;;;;;;;;;;;;7392339;19;20336;-59
2021/12/17 04:40:31;;;;;;;;;;;;;;;;;;7391422;19;20367;-59
2021/12/17 04:45:47;;;;;;;;;;;;;;;;;;7392764;19;19914;-59
2021/12/17 04:59:27;;;;;;;;;;;;;;;;;;7391222;19;19915;-59
2021/12/17 05:02:01;;;;;;;;;;;;;;;;;;7391286;19;19922;-61
2021/12/17 05:04:34;;;;;;;;;;;;;;;;;;7390523;19;20447;-59
2021/12/17 05:07:03;;;;;;;;;;;;;;;;;;7391070;19;19907;-60
2021/12/17 05:09:39;;;;;;;;;;;;;;;;;;7393380;19;19918;-59
2021/12/17 05:23:00;;;;;;;;;;;;;;;;;;7393004;19;19926;-59
2021/12/17 05:25:29;;;;;;;;;;;;;;;;;;7390404;19;19922;-59
2021/12/17 05:28:01;;;;;;;;;;;;;;;;;;7390262;19;19919;-59
2021/12/17 05:30:33;;;;;;;;;;;;;;;;;;7390623;19;19970;-59
2021/12/17 05:33:01;;;;;;;;;;;;;;;;;;7390353;19;19938;-55
2021/12/17 05:35:29;;;;;;;;;;;;;;;;;;7388573;19;19915;-58
2021/12/17 05:37:59;;;;;;;;;;;;;;;;;;7390001;19;20268;-59
2021/12/17 05:40:28;;;;;;;;;;;;;;;;;;7389362;19;19915;-58
2021/12/17 05:42:56;;;;;;;;;;;;;;;;;;7389632;19;19930;-60
2021/12/17 05:45:36;;;;;;;;;;;;;;;;;;7389630;19;19911;-59
2021/12/17 05:48:05;;;;;;;;;;;;;;;;;;7390553;19;20331;-61
2021/12/17 05:50:34;;;;;;;;;;;;;;;;;;7390728;19;19918;-55
2021/12/17 05:53:02;;;;;;;;;;;;;;;;;;7391334;19;19923;-57
2021/12/17 05:55:30;;;;;;;;;;;;;;;;;;7389854;19;19927;-57
2021/12/17 05:57:57;;;;;;;;;;;;;;;;;;7389333;19;19923;-60
2021/12/17 06:00:25;;;;;;;;;;;;;;;;;;7389871;19;19922;-57
2021/12/17 06:02:52;;;;;;;;;;;;;;;;;;7390978;19;19974;-58
2021/12/17 06:05:39;;;;;;;;;;;;;;;;;;7389595;19;19915;-60
2021/12/17 06:08:07;;;;;;;;;;;;;;;;;;7389637;19;20328;-61
2021/12/17 06:10:35;;;;;;;;;;;;;;;;;;7389329;19;19923;-58
2021/12/17 06:13:02;;;;;;;;;;;;;;;;;;7388639;19;19930;-56
2021/12/17 06:15:29;;;;;;;;;;;;;;;;;;7388279;19;19950;-61
2021/12/17 06:17:58;;;;;;;;;;;;;;;;;;7394553;19;19931;-59
2021/12/17 06:20:26;;;;;;;;;;;;;;;;;;7397976;19;20344;-58
2021/12/17 06:22:59;;;;;;;;;;;;;;;;;;7396162;19;19911;-60
2021/12/17 06:25:26;;;;;;;;;;;;;;;;;;7395993;19;19915;-59
2021/12/17 06:27:54;;;;;;;;;;;;;;;;;;7396733;19;20310;-60
2021/12/17 06:30:22;;;;;;;;;;;;;;;;;;7395903;19;19915;-60
2021/12/17 06:32:50;;;;;;;;;;;;;;;;;;7396207;19;19925;-57
2021/12/17 06:35:17;;;;;;;;;;;;;;;;;;7393483;19;19925;-56
2021/12/17 06:37:44;;;;;;;;;;;;;;;;;;7395719;19;20335;-57
2021/12/17 06:40:19;;;;;;;;;;;;;;;;;;7394869;19;19915;-58
2021/12/17 06:42:49;;;;;;;;;;;;;;;;;;7397234;19;19919;-61
2021/12/17 06:45:36;;;;;;;;;;;;;;;;;;7395113;19;19943;-58
2021/12/17 06:48:04;;;;;;;;;;;;;;;;;;7394678;19;20400;-60
2021/12/17 06:57:57;;;;;;;;;;;;;;;;;;7395279;19;19975;-60
2021/12/17 07:17:08;;;;;;;;;;;;;;;;;;7394550;19;20328;-59
2021/12/17 07:18:01;;;;;;;;;;;;;;;;;;7392437;19;19926;-59
2021/12/17 07:23:46;;;;;;;;;;;;;;;;;;7393970;19;19915;-59
2021/12/17 07:33:36;;;;;;;;;;;;;;;;;;7393019;19;19922;-59
2021/12/17 07:35:40;;;;;;;;;;;;;;;;;;7392516;19;19911;-57
2021/12/17 07:40:55;;;;;;;;;;;;;;;;;;7392266;19;20307;-60
2021/12/17 07:43:29;;;;;;;;;;;;;;;;;;7393943;19;19922;-59
2021/12/17 07:45:57;;;;;;;;;;;;;;;;;;7394973;19;19930;-59
2021/12/17 07:48:26;;;;;;;;;;;;;;;;;;7393492;19;20354;-59
2021/12/17 07:50:56;;;;;;;;;;;;;;;;;;7394916;19;19919;-60
2021/12/17 07:53:31;;;;;;;;;;;;;;;;;;7396737;19;20359;-60
2021/12/17 07:56:07;;;;;;;;;;;;;;;;;;7390918;19;19935;-59
2021/12/17 07:58:38;;;;;;;;;;;;;;;;;;7393618;19;19911;-58
2021/12/17 08:01:08;;;;;;;;;;;;;;;;;;7393041;19;19925;-60
2021/12/17 08:03:40;;;;;;;;;;;;;;;;;;7393234;19;19931;-59
2021/12/17 08:06:21;;;;;;;;;;;;;;;;;;7394038;19;19923;-60
2021/12/17 08:09:03;;;;;;;;;;;;;;;;;;7393455;19;19924;-59
2021/12/17 08:11:38;;;;;;;;;;;;;;;;;;7392784;19;19930;-57
2021/12/17 08:14:11;;;;;;;;;;;;;;;;;;7393919;19;19931;-59
2021/12/17 08:16:54;;;;;;;;;;;;;;;;;;7393067;19;19911;-56
2021/12/17 08:25:08;;;;;;;;;;;;;;;;;;7392323;19;19918;-61
2021/12/17 08:30:25;;;;;;;;;;;;;;;;;;7393816;19;19915;-60
2021/12/17 08:33:07;;;;;;;;;;;;;;;;;;7391958;19;19919;-60
2021/12/17 08:35:35;;;;;;;;;;;;;;;;;;7391177;19;19986;-60
2021/12/17 08:38:11;;;;;;;;;;;;;;;;;;7394037;19;19918;-59
2021/12/17 08:40:39;;;;;;;;;;;;;;;;;;7390242;19;19919;-61
2021/12/17 08:43:06;;;;;;;;;;;;;;;;;;7391732;19;19918;-61
2021/12/17 08:45:42;;;;;;;;;;;;;;;;;;7393801;19;19951;-58
2021/12/17 08:48:30;;;;;;;;;;;;;;;;;;7391750;19;20233;-59
2021/12/17 08:51:27;;;;;;;;;;;;;;;;;;7391553;19;19915;-60
2021/12/17 08:53:56;;;;;;;;;;;;;;;;;;7393577;19;19911;-61
2021/12/17 08:56:29;;;;;;;;;;;;;;;;;;7391445;19;19919;-61
2021/12/17 08:58:58;;;;;;;;;;;;;;;;;;7391682;19;19926;-61
2021/12/17 09:01:32;;;;;;;;;;;;;;;;;;7394665;19;19915;-56
2021/12/17 09:04:01;;;;;;;;;;;;;;;;;;7395022;19;19915;-61
2021/12/17 09:06:35;;;;;;;;;;;;;;;;;;7390880;19;19939;-58
2021/12/17 09:09:04;;;;;;;;;;;;;;;;;;7391300;19;19915;-59
2021/12/17 09:11:33;;;;;;;;;;;;;;;;;;7390833;19;19938;-60
2021/12/17 09:14:06;;;;;;;;;;;;;;;;;;7390566;19;19911;-58
2021/12/17 09:16:50;;;;;;;;;;;;;;;;;;7390789;19;19919;-59
2021/12/17 09:19:19;;;;;;;;;;;;;;;;;;7391229;19;19915;-59
2021/12/17 09:21:49;;;;;;;;;;;;;;;;;;7390491;19;20247;-57
2021/12/17 09:24:22;;;;;;;;;;;;;;;;;;7391164;19;19918;-61
2021/12/17 09:27:19;;;;;;;;;;;;;;;;;;7388504;19;19911;-59
2021/12/17 09:29:59;;;;;;;;;;;;;;;;;;7392027;19;19923;-60
2021/12/17 09:32:26;;;;;;;;;;;;;;;;;;7392312;19;19921;-61
2021/12/17 09:34:53;;;;;;;;;;;;;;;;;;7391331;19;19960;-58
2021/12/17 09:37:20;;;;;;;;;;;;;;;;;;7392082;19;19967;-60
2021/12/17 09:39:48;;;;;;;;;;;;;;;;;;7391560;19;19950;-58
2021/12/17 09:42:16;;;;;;;;;;;;;;;;;;7391460;19;19911;-60
2021/12/17 09:44:43;;;;;;;;;;;;;;;;;;7391856;19;19982;-59
2021/12/17 09:47:10;;;;;;;;;;;;;;;;;;7392034;19;19918;-62
2021/12/17 09:49:38;;;;;;;;;;;;;;;;;;7391716;19;19923;-59
2021/12/17 09:52:05;;;;;;;;;;;;;;;;;;7394658;19;19946;-60
2021/12/17 09:54:32;;;;;;;;;;;;;;;;;;7401793;19;19911;-61
2021/12/17 09:56:59;;;;;;;;;;;;;;;;;;7398807;19;19919;-58
2021/12/17 09:59:26;;;;;;;;;;;;;;;;;;7399151;19;19974;-59
2021/12/17 10:01:54;;;;;;;;;;;;;;;;;;7400239;19;19926;-58
2021/12/17 10:04:25;;;;;;;;;;;;;;;;;;7398729;19;20335;-60
2021/12/17 10:06:53;;;;;;;;;;;;;;;;;;7399890;19;19922;-59
2021/12/17 10:09:32;;;;;;;;;;;;;;;;;;7398594;19;19919;-60
2021/12/17 10:12:08;;;;;;;;;;;;;;;;;;7398458;19;19970;-60
2021/12/17 10:14:35;;;;;;;;;;;;;;;;;;7397987;19;19950;-61
2021/12/17 10:17:06;;;;;;;;;;;;;;;;;;7392599;19;19961;-59
2021/12/17 10:19:41;;;;;;;;;;;;;;;;;;7399135;19;19937;-59
2021/12/17 10:22:10;;;;;;;;;;;;;;;;;;7398115;19;19932;-61
2021/12/17 10:24:41;;;;;;;;;;;;;;;;;;7391522;19;19938;-60
2021/12/17 10:27:21;;;;;;;;;;;;;;;;;;7398904;19;19918;-59
2021/12/17 10:29:49;;;;;;;;;;;;;;;;;;7391355;19;19933;-60
2021/12/17 10:32:18;;;;;;;;;;;;;;;;;;7399590;19;19915;-60
2021/12/17 10:35:19;;;;;;;;;;;;;;;;;;7397002;19;19929;-59
2021/12/17 10:37:50;;;;;;;;;;;;;;;;;;7395184;19;19935;-58
2021/12/17 10:40:24;;;;;;;;;;;;;;;;;;7396495;19;19919;-57
2021/12/17 10:42:59;;;;;;;;;;;;;;;;;;7396901;19;19921;-61
2021/12/17 10:45:29;;;;;;;;;;;;;;;;;;7397355;19;20244;-60
2021/12/17 10:48:20;;;;;;;;;;;;;;;;;;7397266;19;19911;-57
2021/12/17 10:50:49;;;;;;;;;;;;;;;;;;7397090;19;19915;-59
2021/12/17 10:53:16;;;;;;;;;;;;;;;;;;7397460;19;19934;-58
2021/12/17 10:55:44;;;;;;;;;;;;;;;;;;7396081;19;20335;-58
2021/12/17 10:58:11;;;;;;;;;;;;;;;;;;7395744;19;19954;-61
2021/12/17 11:00:45;;;;;;;;;;;;;;;;;;7396599;19;19918;-58
2021/12/17 11:03:13;;;;;;;;;;;;;;;;;;7396381;19;19915;-61
2021/12/17 11:05:40;;;;;;;;;;;;;;;;;;7396814;19;20327;-60
2021/12/17 11:08:24;;;;;;;;;;;;;;;;;;7396577;19;19974;-59
2021/12/17 11:10:58;;;;;;;;;;;;;;;;;;7396439;19;19919;-60
2021/12/17 11:13:26;;;;;;;;;;;;;;;;;;7396375;19;19934;-61
2021/12/17 11:15:53;;;;;;;;;;;;;;;;;;7395257;19;19952;-60
2021/12/17 11:18:27;;;;;;;;;;;;;;;;;;7395990;19;19935;-61
2021/12/17 11:20:56;;;;;;;;;;;;;;;;;;7395969;19;19974;-58
2021/12/17 11:23:24;;;;;;;;;;;;;;;;;;7396097;19;19919;-61
2021/12/17 11:25:54;;;;;;;;;;;;;;;;;;7397826;19;19931;-60
2021/12/17 11:28:22;;;;;;;;;;;;;;;;;;7395921;19;19911;-60
2021/12/17 11:30:50;;;;;;;;;;;;;;;;;;7398735;19;19918;-61
2021/12/17 11:33:18;;;;;;;;;;;;;;;;;;7400260;19;19922;-60
2021/12/17 11:35:46;;;;;;;;;;;;;;;;;;7394147;19;19917;-61
2021/12/17 11:38:15;;;;;;;;;;;;;;;;;;7396098;19;20489;-61
2021/12/17 11:40:42;;;;;;;;;;;;;;;;;;7395327;19;19934;-59
2021/12/17 11:43:15;;;;;;;;;;;;;;;;;;7396160;19;19973;-58
2021/12/17 11:45:44;;;;;;;;;;;;;;;;;;7393950;19;20259;-62
2021/12/17 11:48:13;;;;;;;;;;;;;;;;;;7394688;19;19921;-59
2021/12/17 11:50:41;;;;;;;;;;;;;;;;;;7395888;19;19919;-60
2021/12/17 11:53:22;;;;;;;;;;;;;;;;;;7395431;19;19954;-59
2021/12/17 11:55:57;;;;;;;;;;;;;;;;;;7393640;19;19996;-61
2021/12/17 11:58:43;;;;;;;;;;;;;;;;;;7395275;19;19931;-60
2021/12/17 12:01:10;;;;;;;;;;;;;;;;;;7394834;19;20331;-59
2021/12/17 12:03:37;;;;;;;;;;;;;;;;;;7394824;19;19915;-61
2021/12/17 12:06:04;;;;;;;;;;;;;;;;;;7394498;19;19927;-60
2021/12/17 12:08:45;;;;;;;;;;;;;;;;;;7394420;19;19938;-60
2021/12/17 12:11:22;;;;;;;;;;;;;;;;;;7395151;19;20075;-61
2021/12/17 12:13:51;;;;;;;;;;;;;;;;;;7393242;19;19922;-60
2021/12/17 12:16:18;;;;;;;;;;;;;;;;;;7392067;19;19919;-59
2021/12/17 12:18:52;;;;;;;;;;;;;;;;;;7394139;19;19964;-57
2021/12/17 12:21:21;;;;;;;;;;;;;;;;;;7394356;19;19992;-56
2021/12/17 12:23:51;;;;;;;;;;;;;;;;;;7393796;19;20240;-60
2021/12/17 12:26:23;;;;;;;;;;;;;;;;;;7394054;19;19918;-57
2021/12/17 12:28:50;;;;;;;;;;;;;;;;;;7394070;19;19925;-61
2021/12/17 12:31:19;;;;;;;;;;;;;;;;;;7393558;19;19944;-61
2021/12/17 12:36:52;;;;;;;;;;;;;;;;;;7392273;19;19919;-61
2021/12/17 12:39:19;;;;;;;;;;;;;;;;;;7391867;19;19914;-59
2021/12/17 12:41:46;;;;;;;;;;;;;;;;;;7391905;19;19919;-55
2021/12/17 12:44:14;;;;;;;;;;;;;;;;;;7394166;19;19914;-61
2021/12/17 12:46:47;;;;;;;;;;;;;;;;;;7393920;19;19922;-58
2021/12/17 12:49:33;;;;;;;;;;;;;;;;;;7393502;19;19922;-59
2021/12/17 12:52:14;;;;;;;;;;;;;;;;;;7392943;19;19911;-60
2021/12/17 12:54:42;;;;;;;;;;;;;;;;;;7397759;19;19911;-58
2021/12/17 12:57:09;;;;;;;;;;;;;;;;;;7390861;19;19918;-60
2021/12/17 12:59:38;;;;;;;;;;;;;;;;;;7393266;19;19918;-59
2021/12/17 13:02:05;;;;;;;;;;;;;;;;;;7393157;19;19998;-59
2021/12/17 13:04:33;;;;;;;;;;;;;;;;;;7392462;19;19934;-59
2021/12/17 13:07:00;;;;;;;;;;;;;;;;;;7392723;19;19946;-57
2021/12/17 13:09:29;;;;;;;;;;;;;;;;;;7392930;19;19943;-59
2021/12/17 13:11:56;;;;;;;;;;;;;;;;;;7392503;19;19914;-56
2021/12/17 13:14:25;;;;;;;;;;;;;;;;;;7392605;19;19979;-58
2021/12/17 13:17:17;;;;;;;;;;;;;;;;;;7390534;19;19915;-58
2021/12/17 13:20:29;;;;;;;;;;;;;;;;;;7392877;19;19911;-59
2021/12/17 13:22:58;;;;;;;;;;;;;;;;;;7391995;19;19938;-61
2021/12/17 13:25:26;;;;;;;;;;;;;;;;;;7391935;19;19919;-61
2021/12/17 13:27:56;;;;;;;;;;;;;;;;;;7390667;19;19943;-59
2021/12/17 13:30:27;;;;;;;;;;;;;;;;;;7395569;19;19922;-60
2021/12/17 13:32:54;;;;;;;;;;;;;;;;;;7391792;19;19935;-61
2021/12/17 13:35:26;;;;;;;;;;;;;;;;;;7391475;19;19919;-58
2021/12/17 13:37:59;;;;;;;;;;;;;;;;;;7390910;19;19915;-58
2021/12/17 13:40:27;;;;;;;;;;;;;;;;;;7391287;19;19923;-58
2021/12/17 13:43:00;;;;;;;;;;;;;;;;;;7391618;19;19918;-58
2021/12/17 13:45:27;;;;;;;;;;;;;;;;;;7391469;19;20289;-58
2021/12/17 13:47:56;;;;;;;;;;;;;;;;;;7391497;19;19911;-60
2021/12/17 13:50:24;;;;;;;;;;;;;;;;;;7391354;19;19919;-56
2021/12/17 13:52:54;;;;;;;;;;;;;;;;;;7391092;19;19915;-59
2021/12/17 13:55:27;;;;;;;;;;;;;;;;;;7391260;19;19922;-61
2021/12/17 13:57:55;;;;;;;;;;;;;;;;;;7390762;19;19978;-61
2021/12/17 14:00:26;;;;;;;;;;;;;;;;;;7391251;19;20351;-59
2021/12/17 14:02:55;;;;;;;;;;;;;;;;;;7390606;19;19982;-59
2021/12/17 14:05:30;;;;;;;;;;;;;;;;;;7391529;19;19978;-60
2021/12/17 14:07:59;;;;;;;;;;;;;;;;;;7391108;19;19914;-59
2021/12/17 14:10:30;;;;;;;;;;;;;;;;;;7390912;19;20011;-59
2021/12/17 14:12:58;;;;;;;;;;;;;;;;;;7390744;19;19915;-59
2021/12/17 14:15:46;;;;;;;;;;;;;;;;;;7390759;19;19986;-60
2021/12/17 14:18:17;;;;;;;;;;;;;;;;;;7390534;19;20332;-56
2021/12/17 14:20:45;;;;;;;;;;;;;;;;;;7391360;19;19931;-59
2021/12/17 14:23:20;;;;;;;;;;;;;;;;;;7391129;19;19915;-60
2021/12/17 14:25:48;;;;;;;;;;;;;;;;;;7390351;19;19919;-60
2021/12/17 14:28:21;;;;;;;;;;;;;;;;;;7390748;19;19919;-60
2021/12/17 14:30:54;;;;;;;;;;;;;;;;;;7390587;19;20416;-60
2021/12/17 14:33:23;;;;;;;;;;;;;;;;;;7390574;19;19927;-59
2021/12/17 14:35:54;;;;;;;;;;;;;;;;;;7388652;19;20378;-59
2021/12/17 14:38:41;;;;;;;;;;;;;;;;;;7393611;19;19919;-59
2021/12/17 14:41:13;;;;;;;;;;;;;;;;;;7395987;19;19942;-60
2021/12/17 14:43:52;;;;;;;;;;;;;;;;;;7397912;19;19914;-60
2021/12/17 14:46:24;;;;;;;;;;;;;;;;;;7397278;19;19978;-60
2021/12/17 14:49:19;;;;;;;;;;;;;;;;;;7396826;19;20340;-59
2021/12/17 15:05:51;;;;;;;;;;;;;;;;;;7396159;19;20368;-57
2021/12/17 15:08:18;;;;;;;;;;;;;;;;;;7396535;19;20394;-57
2021/12/17 15:10:46;;;;;;;;;;;;;;;;;;7396914;19;19923;-57
2021/12/17 15:13:13;;;;;;;;;;;;;;;;;;7396958;19;19917;-59
2021/12/17 15:15:41;;;;;;;;;;;;;;;;;;7396362;19;19974;-57
2021/12/17 15:18:14;;;;;;;;;;;;;;;;;;7395562;19;19947;-56
2021/12/17 15:20:42;;;;;;;;;;;;;;;;;;7396241;19;20006;-59
2021/12/17 15:23:10;;;;;;;;;;;;;;;;;;7396158;19;19922;-59
2021/12/17 15:25:39;;;;;;;;;;;;;;;;;;7396083;19;19946;-59
2021/12/17 15:28:07;;;;;;;;;;;;;;;;;;7394286;19;20409;-60
2021/12/17 15:30:39;;;;;;;;;;;;;;;;;;7395564;19;19923;-59
2021/12/17 15:33:07;;;;;;;;;;;;;;;;;;7395561;19;19942;-60
2021/12/17 15:35:34;;;;;;;;;;;;;;;;;;7395737;19;20340;-58
2021/12/17 15:38:04;;;;;;;;;;;;;;;;;;7393753;19;19946;-59
2021/12/17 15:40:35;;;;;;;;;;;;;;;;;;7394706;19;19944;-56
2021/12/17 15:43:02;;;;;;;;;;;;;;;;;;7397583;19;19922;-58
2021/12/17 15:45:34;;;;;;;;;;;;;;;;;;7395617;19;19974;-60
2021/12/17 15:48:01;;;;;;;;;;;;;;;;;;7395657;19;20309;-59
2021/12/17 15:50:44;;;;;;;;;;;;;;;;;;7394108;19;20291;-57
2021/12/17 15:53:12;;;;;;;;;;;;;;;;;;7395955;19;19911;-59
2021/12/17 15:55:40;;;;;;;;;;;;;;;;;;7395350;19;19915;-58
2021/12/17 15:58:07;;;;;;;;;;;;;;;;;;7390877;19;20340;-59
2021/12/17 16:00:36;;;;;;;;;;;;;;;;;;7394643;19;20305;-60
2021/12/17 16:03:05;;;;;;;;;;;;;;;;;;7394424;19;20273;-60
2021/12/17 16:05:34;;;;;;;;;;;;;;;;;;7394967;19;19918;-59
2021/12/17 16:08:01;;;;;;;;;;;;;;;;;;7394197;19;19919;-57
2021/12/17 16:21:09;;;;;;;;;;;;;;;;;;7394301;19;19925;-60
2021/12/17 16:23:48;;;;;;;;;;;;;;;;;;7394549;19;19946;-60
2021/12/17 16:26:17;;;;;;;;;;;;;;;;;;7394248;19;20332;-60
2021/12/17 16:28:45;;;;;;;;;;;;;;;;;;7394213;19;19925;-59
2021/12/17 16:31:15;;;;;;;;;;;;;;;;;;7392875;19;19951;-59
2021/12/17 16:33:43;;;;;;;;;;;;;;;;;;7394652;19;19922;-58
2021/12/17 16:36:10;;;;;;;;;;;;;;;;;;7393352;19;19925;-59
2021/12/17 16:38:38;;;;;;;;;;;;;;;;;;7393885;19;19929;-60
2021/12/17 16:41:06;;;;;;;;;;;;;;;;;;7392477;19;19919;-58
2021/12/17 16:43:34;;;;;;;;;;;;;;;;;;7393415;19;19921;-60
2021/12/17 16:46:12;;;;;;;;;;;;;;;;;;7393405;19;19939;-60
2021/12/17 16:48:41;;;;;;;;;;;;;;;;;;7393747;19;19922;-59
2021/12/17 16:51:08;;;;;;;;;;;;;;;;;;7392769;19;19923;-59
2021/12/17 16:53:36;;;;;;;;;;;;;;;;;;7394589;19;19911;-58
2021/12/17 16:56:04;;;;;;;;;;;;;;;;;;7392803;19;19938;-60
2021/12/17 16:58:31;;;;;;;;;;;;;;;;;;7392814;19;19954;-60
2021/12/17 17:00:58;;;;;;;;;;;;;;;;;;7391375;19;19915;-58
2021/12/17 17:03:26;;;;;;;;;;;;;;;;;;7392790;19;20341;-60
2021/12/17 17:05:54;;;;;;;;;;;;;;;;;;7392717;19;19932;-58
2021/12/17 17:08:21;;;;;;;;;;;;;;;;;;7392420;19;19921;-58
2021/12/17 17:10:53;;;;;;;;;;;;;;;;;;7392435;19;19918;-59
2021/12/17 17:13:22;;;;;;;;;;;;;;;;;;7392846;19;19987;-60
2021/12/17 17:15:49;;;;;;;;;;;;;;;;;;7392447;19;19943;-59
2021/12/17 17:18:17;;;;;;;;;;;;;;;;;;7391033;19;19915;-59
2021/12/17 17:20:44;;;;;;;;;;;;;;;;;;7392233;19;19911;-60
2021/12/17 17:23:12;;;;;;;;;;;;;;;;;;7392870;19;19975;-58
2021/12/17 17:25:39;;;;;;;;;;;;;;;;;;7392480;19;19933;-61
2021/12/17 17:28:06;;;;;;;;;;;;;;;;;;7392316;19;19928;-60
2021/12/17 17:30:34;;;;;;;;;;;;;;;;;;7392332;19;19937;-59
2021/12/17 17:33:02;;;;;;;;;;;;;;;;;;7392168;19;19919;-58
2021/12/17 17:35:30;;;;;;;;;;;;;;;;;;7391478;19;19915;-60
2021/12/17 17:37:58;;;;;;;;;;;;;;;;;;7390386;19;20328;-60
2021/12/17 17:40:25;;;;;;;;;;;;;;;;;;7390587;19;19937;-60
2021/12/17 17:42:52;;;;;;;;;;;;;;;;;;7391428;19;20328;-59
2021/12/17 17:45:19;;;;;;;;;;;;;;;;;;7391835;19;19926;-60
2021/12/17 17:47:50;;;;;;;;;;;;;;;;;;7392119;19;19922;-60
2021/12/17 17:50:18;;;;;;;;;;;;;;;;;;7391225;19;20324;-58
2021/12/17 17:52:45;;;;;;;;;;;;;;;;;;7392165;19;19919;-58
2021/12/17 17:55:13;;;;;;;;;;;;;;;;;;7396522;19;19919;-58
2021/12/17 17:57:40;;;;;;;;;;;;;;;;;;7390446;19;20147;-57
2021/12/17 18:00:08;;;;;;;;;;;;;;;;;;7395212;19;19936;-61
2021/12/17 18:02:38;;;;;;;;;;;;;;;;;;7390942;19;19923;-59
2021/12/17 18:05:09;;;;;;;;;;;;;;;;;;7390899;19;19915;-60
2021/12/17 18:07:36;;;;;;;;;;;;;;;;;;7391492;19;19991;-59
2021/12/17 18:10:07;;;;;;;;;;;;;;;;;;7390372;19;19923;-60
2021/12/17 18:12:34;;;;;;;;;;;;;;;;;;7392630;19;19919;-59
2021/12/17 18:15:02;;;;;;;;;;;;;;;;;;7398188;19;19917;-60
2021/12/17 18:17:29;;;;;;;;;;;;;;;;;;7397160;19;19914;-59
2021/12/17 18:19:57;;;;;;;;;;;;;;;;;;7398283;19;19918;-55
2021/12/17 18:22:29;;;;;;;;;;;;;;;;;;7397462;19;20347;-59
2021/12/17 18:24:56;;;;;;;;;;;;;;;;;;7397605;19;19914;-59
2021/12/17 18:27:24;;;;;;;;;;;;;;;;;;7396333;19;19915;-57
2021/12/17 18:29:51;;;;;;;;;;;;;;;;;;7397797;19;19910;-60
2021/12/17 18:32:18;;;;;;;;;;;;;;;;;;7398240;19;19923;-59
2021/12/17 18:34:45;;;;;;;;;;;;;;;;;;7398041;19;20343;-61
2021/12/17 18:37:13;;;;;;;;;;;;;;;;;;7397460;19;20224;-60
2021/12/17 18:39:41;;;;;;;;;;;;;;;;;;7397704;19;19927;-60
2021/12/17 18:44:54;;;;;;;;;;;;;;;;;;7397555;19;19919;-59
2021/12/17 18:47:21;;;;;;;;;;;;;;;;;;7397420;19;19917;-60
2021/12/17 18:49:48;;;;;;;;;;;;;;;;;;7397262;19;19915;-58
2021/12/17 18:52:15;;;;;;;;;;;;;;;;;;7398608;19;20244;-58
2021/12/17 18:54:43;;;;;;;;;;;;;;;;;;7400960;19;19911;-56
2021/12/17 18:57:10;;;;;;;;;;;;;;;;;;7396087;19;20363;-59
2021/12/17 18:59:37;;;;;;;;;;;;;;;;;;7396791;19;20332;-60
2021/12/17 19:02:04;;;;;;;;;;;;;;;;;;7396669;19;20026;-58
2021/12/17 19:04:31;;;;;;;;;;;;;;;;;;7397023;19;19919;-58
2021/12/17 19:06:59;;;;;;;;;;;;;;;;;;7396686;19;19938;-58
2021/12/17 19:09:26;;;;;;;;;;;;;;;;;;7395041;19;20267;-58
2021/12/17 19:11:53;;;;;;;;;;;;;;;;;;7396578;19;19915;-58
2021/12/17 19:14:26;;;;;;;;;;;;;;;;;;7395556;19;19915;-58
2021/12/17 19:16:54;;;;;;;;;;;;;;;;;;7395869;19;19922;-58
2021/12/17 19:19:27;;;;;;;;;;;;;;;;;;7395938;19;20336;-58
2021/12/17 19:22:15;;;;;;;;;;;;;;;;;;7395871;19;19914;-59
2021/12/17 19:24:43;;;;;;;;;;;;;;;;;;7393729;19;20336;-59
2021/12/17 19:27:10;;;;;;;;;;;;;;;;;;7395942;19;19919;-58
2021/12/17 19:29:39;;;;;;;;;;;;;;;;;;7396088;19;19928;-58
2021/12/17 19:32:07;;;;;;;;;;;;;;;;;;7396171;19;19935;-57
2021/12/17 19:34:34;;;;;;;;;;;;;;;;;;7396190;19;20020;-56
2021/12/17 19:37:02;;;;;;;;;;;;;;;;;;7395258;19;19942;-56
2021/12/17 19:39:29;;;;;;;;;;;;;;;;;;7395518;19;19927;-58
2021/12/17 19:41:57;;;;;;;;;;;;;;;;;;7393605;19;19915;-59
2021/12/17 19:44:24;;;;;;;;;;;;;;;;;;7395595;19;19915;-56
2021/12/17 19:51:57;;;;;;;;;;;;;;;;;;7395325;19;19911;-58
2021/12/17 19:54:25;;;;;;;;;;;;;;;;;;7398609;19;19914;-58
2021/12/17 19:56:52;;;;;;;;;;;;;;;;;;7394653;19;20328;-58
2021/12/17 19:59:35;;;;;;;;;;;;;;;;;;7397969;19;19922;-58
2021/12/17 20:02:04;;;;;;;;;;;;;;;;;;7394692;19;19929;-57
2021/12/17 20:04:33;;;;;;;;;;;;;;;;;;7394710;19;20331;-58
2021/12/17 20:07:01;;;;;;;;;;;;;;;;;;7394864;19;19919;-59
2021/12/17 20:09:28;;;;;;;;;;;;;;;;;;7394698;19;19978;-56
2021/12/17 20:11:56;;;;;;;;;;;;;;;;;;7394918;19;19921;-57
2021/12/17 20:14:23;;;;;;;;;;;;;;;;;;7393565;19;19911;-56
2021/12/17 20:16:50;;;;;;;;;;;;;;;;;;7394162;19;20339;-58
2021/12/17 20:19:18;;;;;;;;;;;;;;;;;;7395018;19;19919;-59
2021/12/17 20:21:45;;;;;;;;;;;;;;;;;;7394365;19;19929;-56
2021/12/17 20:24:12;;;;;;;;;;;;;;;;;;7393856;19;19915;-57
2021/12/17 20:26:39;;;;;;;;;;;;;;;;;;7394021;19;20335;-59
2021/12/17 20:29:07;;;;;;;;;;;;;;;;;;7394147;19;19915;-54
2021/12/17 20:31:35;;;;;;;;;;;;;;;;;;7394059;19;19914;-57